Time;durP1;ratioP1;P1;durP2;ratioP2;P2;SDS_P1;SDS_P2;PMS_P1;PMS_P2;Temp;Humidity;BMP_temperature;BMP_pressure;BME280_temperature;BME280_humidity;BME280_pressure;Samples;Min_cycle;Max_cycle;Signal;HPM_P1;HPM_P2
2023/01/15 00:01:49;;;;;;;1.35;0.40;;;9.30;99.90;;;8.74;100.00;96077.16;5032216;28;20026;-37
2023/01/15 00:04:16;;;;;;;1.38;0.40;;;9.30;99.90;;;8.76;100.00;96084.97;5036457;28;20092;-37
2023/01/15 00:06:42;;;;;;;0.65;0.50;;;9.30;99.90;;;8.81;100.00;96067.19;5036419;28;20033;-37
2023/01/15 00:09:14;;;;;;;0.82;0.50;;;9.30;99.90;;;8.77;100.00;96049.88;5034874;28;20278;-37
2023/01/15 00:11:40;;;;;;;1.05;0.55;;;9.40;99.90;;;8.83;100.00;96060.09;5032912;28;20022;-37
2023/01/15 00:14:06;;;;;;;1.83;0.90;;;9.40;99.90;;;8.85;100.00;96047.69;5032577;28;20047;-37
2023/01/15 00:16:31;;;;;;;1.20;0.40;;;9.40;99.90;;;8.90;100.00;96061.47;5034261;28;20094;-37
2023/01/15 00:19:00;;;;;;;0.52;0.35;;;9.40;99.90;;;8.90;100.00;96048.31;5032959;28;20032;-37
2023/01/15 00:21:27;;;;;;;0.60;0.40;;;9.40;99.90;;;8.95;100.00;96045.44;5035031;28;20158;-37
2023/01/15 00:29:24;;;;;;;1.17;0.40;;;9.60;99.90;;;9.04;100.00;96026.53;5033983;28;20044;-37
2023/01/15 00:31:58;;;;;;;1.02;0.32;;;9.60;99.90;;;9.05;100.00;96035.31;5033329;28;20021;-37
2023/01/15 00:34:24;;;;;;;0.40;0.40;;;9.60;99.90;;;9.04;100.00;96036.22;5033660;28;20048;-37
2023/01/15 00:36:50;;;;;;;1.30;0.40;;;9.60;99.90;;;9.11;100.00;96027.06;5034856;28;20036;-37
2023/01/15 00:39:15;;;;;;;0.25;0.20;;;9.60;99.90;;;9.07;100.00;96010.63;5036619;28;20041;-37
2023/01/15 00:41:41;;;;;;;0.60;0.50;;;9.70;99.90;;;9.09;100.00;96005.28;5036580;28;20049;-37
2023/01/15 00:44:07;;;;;;;3.30;0.50;;;9.70;99.90;;;9.09;100.00;95992.97;5032273;28;20088;-37
2023/01/15 00:46:33;;;;;;;0.93;0.40;;;9.70;99.90;;;9.15;100.00;95987.41;5035585;28;20028;-37
2023/01/15 00:48:58;;;;;;;0.68;0.30;;;9.70;99.90;;;9.15;100.00;96002.31;5034664;28;20500;-37
2023/01/15 00:51:24;;;;;;;0.75;0.50;;;9.70;99.90;;;9.10;100.00;95988.56;5035218;28;20029;-37
2023/01/15 00:53:50;;;;;;;1.70;0.65;;;9.70;99.90;;;9.05;100.00;95990.59;5033232;28;20024;-37
2023/01/15 00:56:15;;;;;;;0.60;0.38;;;9.60;99.90;;;9.03;100.00;95979.31;5035449;28;20033;-37
2023/01/15 00:58:41;;;;;;;1.52;0.50;;;9.60;99.90;;;9.05;100.00;95969.56;5036370;28;20040;-37
2023/01/15 01:01:07;;;;;;;0.98;0.43;;;9.60;99.90;;;9.06;100.00;95976.50;5032650;28;20393;-37
2023/01/15 01:03:33;;;;;;;0.35;0.30;;;9.60;99.90;;;9.05;100.00;95961.66;5033698;28;20163;-37
2023/01/15 01:06:02;;;;;;;1.70;0.40;;;9.60;99.90;;;8.98;100.00;95958.50;5033242;28;20281;-37
2023/01/15 01:08:29;;;;;;;1.88;0.35;;;9.60;99.90;;;8.94;100.00;95968.34;5036048;28;20030;-37
2023/01/15 01:11:08;;;;;;;0.80;0.40;;;9.50;99.90;;;8.88;100.00;95958.16;5035241;28;20032;-37
2023/01/15 01:13:35;;;;;;;0.30;0.20;;;9.40;99.90;;;8.84;100.00;95961.03;5017665;28;20048;-37
2023/01/15 01:16:01;;;;;;;0.60;0.30;;;9.40;99.90;;;8.87;100.00;95963.50;5031782;28;20056;-37
2023/01/15 01:18:27;;;;;;;0.47;0.20;;;9.30;99.90;;;8.75;100.00;95938.72;5035355;28;20083;-37
2023/01/15 01:20:53;;;;;;;0.60;0.40;;;9.40;99.90;;;8.81;100.00;95958.56;5034548;28;20472;-37
2023/01/15 01:23:19;;;;;;;0.85;0.40;;;9.40;99.90;;;8.81;100.00;95961.19;5032438;28;20531;-37
2023/01/15 01:25:45;;;;;;;0.98;0.40;;;9.30;99.90;;;8.76;100.00;95951.78;5034422;28;20107;-37
2023/01/15 01:28:11;;;;;;;0.63;0.40;;;9.30;99.90;;;8.75;100.00;95954.47;5031342;28;20041;-37
2023/01/15 01:30:37;;;;;;;0.40;0.40;;;9.30;99.90;;;8.71;100.00;95961.66;5036317;28;20591;-37
2023/01/15 01:33:04;;;;;;;0.57;0.50;;;9.30;99.90;;;8.66;100.00;95957.59;5031555;28;20029;-37
2023/01/15 01:35:29;;;;;;;0.45;0.35;;;9.30;99.90;;;8.70;100.00;95961.75;5031760;28;20029;-37
2023/01/15 01:37:55;;;;;;;0.45;0.43;;;9.30;99.90;;;8.68;100.00;95967.09;5018153;28;20034;-37
2023/01/15 01:40:21;;;;;;;0.63;0.38;;;9.20;99.90;;;8.68;100.00;95977.59;5034294;28;20628;-37
2023/01/15 01:42:46;;;;;;;1.05;0.40;;;9.20;99.90;;;8.71;100.00;95960.84;5031551;28;20029;-37
2023/01/15 01:45:27;;;;;;;0.95;0.30;;;9.30;99.90;;;8.68;100.00;95955.72;5029748;28;20017;-37
2023/01/15 01:47:59;;;;;;;0.75;0.40;;;9.20;99.90;;;8.67;100.00;95944.38;5016373;28;20686;-37
2023/01/15 01:50:27;;;;;;;0.65;0.30;;;9.20;99.90;;;8.68;100.00;95940.81;5032436;28;20055;-37
2023/01/15 01:52:58;;;;;;;0.57;0.30;;;9.20;99.90;;;8.67;100.00;95938.25;5038993;28;20048;-37
2023/01/15 01:55:26;;;;;;;0.88;0.40;;;9.20;99.90;;;8.67;100.00;95925.09;5016580;28;20025;-37
2023/01/15 01:57:57;;;;;;;0.75;0.30;;;9.20;99.90;;;8.69;100.00;95941.66;5032838;28;20396;-37
2023/01/15 02:00:23;;;;;;;0.57;0.22;;;9.20;99.90;;;8.72;100.00;95937.09;5017931;28;20017;-37
2023/01/15 02:02:51;;;;;;;0.38;0.30;;;9.30;99.90;;;8.78;100.00;95922.78;5014121;28;20104;-37
2023/01/15 02:05:28;;;;;;;0.20;0.20;;;9.30;99.90;;;8.83;100.00;95926.03;5034042;28;20029;-37
2023/01/15 02:07:54;;;;;;;1.15;0.30;;;9.40;99.90;;;8.88;100.00;95910.84;5036640;28;20488;-37
2023/01/15 02:10:20;;;;;;;0.73;0.32;;;9.40;99.90;;;8.98;100.00;95926.97;5034328;28;20120;-37
2023/01/15 02:13:04;;;;;;;0.22;0.22;;;9.50;99.90;;;8.97;100.00;95904.22;5031083;28;20460;-37
2023/01/15 02:15:40;;;;;;;0.22;0.20;;;9.60;99.90;;;9.08;100.00;95911.53;5032358;28;20337;-37
2023/01/15 02:18:49;;;;;;;1.20;0.30;;;9.60;99.90;;;9.16;100.00;95894.41;5030830;28;20384;-37
2023/01/15 02:21:52;;;;;;;0.55;0.20;;;9.70;99.90;;;9.25;100.00;95893.03;4999586;28;20503;-37
2023/01/15 02:24:51;;;;;;;3.30;0.25;;;9.80;99.90;;;9.24;100.00;95896.63;5006166;28;20037;-37
2023/01/15 02:27:19;;;;;;;0.98;0.20;;;9.80;99.90;;;9.34;100.00;95892.53;5032142;28;20025;-37
2023/01/15 02:30:14;;;;;;;0.30;0.25;;;9.90;99.90;;;9.45;100.00;95894.53;5014802;28;20072;-37
2023/01/15 02:32:50;;;;;;;0.30;0.30;;;9.90;99.90;;;9.51;100.00;95890.72;5017566;28;20025;-37
2023/01/15 02:35:33;;;;;;;0.63;0.20;;;10.00;99.90;;;9.59;100.00;95891.13;5016901;28;20037;-37
2023/01/15 02:38:06;;;;;;;0.30;0.30;;;10.10;99.90;;;9.60;100.00;95884.09;5036706;28;20029;-37
2023/01/15 02:40:33;;;;;;;2.33;0.20;;;10.10;99.90;;;9.60;100.00;95887.59;5032249;28;20397;-37
2023/01/15 02:42:59;;;;;;;0.50;0.30;;;10.20;99.90;;;9.64;100.00;95899.63;5033867;28;20025;-37
2023/01/15 02:45:33;;;;;;;1.30;0.32;;;10.20;99.90;;;9.67;100.00;95902.09;5046633;22;20508;-44
2023/01/15 02:48:05;;;;;;;0.38;0.20;;;10.20;99.90;;;9.68;100.00;95892.41;5008177;28;20025;-45
2023/01/15 02:50:39;;;;;;;0.28;0.20;;;10.20;99.90;;;9.72;100.00;95886.00;5008193;28;20440;-44
2023/01/15 02:53:12;;;;;;;0.10;0.10;;;10.30;99.90;;;9.75;100.00;95893.75;5006430;28;20026;-44
2023/01/15 02:55:43;;;;;;;0.22;0.20;;;10.30;99.90;;;9.77;100.00;95891.03;4994811;28;20040;-43
2023/01/15 02:58:14;;;;;;;0.82;0.30;;;10.30;99.90;;;9.79;100.00;95889.16;4991720;28;20061;-48
2023/01/15 03:00:44;;;;;;;0.63;0.15;;;10.30;99.90;;;9.75;100.00;95884.06;4996417;28;20427;-47
2023/01/15 03:03:22;;;;;;;0.70;0.20;;;10.30;99.90;;;9.75;100.00;95891.94;4992046;28;20117;-43
2023/01/15 03:05:55;;;;;;;0.20;0.20;;;10.30;99.90;;;9.77;100.00;95891.88;4993300;28;20035;-46
2023/01/15 03:08:21;;;;;;;0.52;0.30;;;10.30;99.90;;;9.72;100.00;95886.84;4993280;28;20053;-46
2023/01/15 03:11:07;;;;;;;0.40;0.20;;;10.30;99.90;;;9.70;100.00;95878.19;4992368;28;20058;-47
2023/01/15 03:13:48;;;;;;;0.20;0.20;;;10.30;99.90;;;9.70;100.00;95887.88;4991025;28;20059;-47
2023/01/15 03:16:33;;;;;;;0.20;0.20;;;10.30;99.90;;;9.66;100.00;95886.38;4992042;28;20494;-47
2023/01/15 03:19:20;;;;;;;0.25;0.20;;;10.20;99.90;;;9.65;100.00;95872.34;4978462;28;20121;-48
2023/01/15 03:22:04;;;;;;;0.60;0.30;;;10.20;99.90;;;9.62;100.00;95877.81;4976773;28;20027;-47
2023/01/15 03:25:00;;;;;;;0.85;0.25;;;10.20;99.90;;;9.63;100.00;95855.81;4991182;28;20077;-47
2023/01/15 03:27:26;;;;;;;0.30;0.25;;;10.10;99.90;;;9.61;100.00;95868.22;4991360;28;20081;-44
2023/01/15 03:30:12;;;;;;;0.17;0.17;;;10.10;99.90;;;9.71;100.00;95865.91;4991965;28;20188;-45
2023/01/15 03:32:38;;;;;;;1.10;0.30;;;10.20;99.90;;;9.78;100.00;95867.25;4996701;28;20045;-44
2023/01/15 03:35:09;;;;;;;0.10;0.10;;;10.30;99.90;;;9.81;100.00;95856.50;4997363;28;20576;-47
2023/01/15 03:37:35;;;;;;;0.13;0.10;;;10.40;99.90;;;9.91;100.00;95864.75;4996954;28;20058;-43
2023/01/15 03:40:01;;;;;;;0.65;0.30;;;10.40;99.90;;;9.99;100.00;95862.50;4996054;28;20042;-43
2023/01/15 03:45:54;;;;;;;0.20;0.20;;;10.50;99.90;;;10.00;100.00;95850.19;4991845;28;20072;-47
2023/01/15 03:48:35;;;;;;;0.10;0.10;;;10.50;99.90;;;10.03;100.00;95844.72;4995630;28;20108;-47
2023/01/15 03:51:12;;;;;;;0.10;0.10;;;10.50;99.90;;;10.06;100.00;95847.19;4997254;28;20521;-47
2023/01/15 03:53:49;;;;;;;0.45;0.20;;;10.60;99.90;;;10.13;100.00;95859.88;4989736;28;20034;-46
2023/01/15 03:56:54;;;;;;;0.25;0.10;;;10.60;99.90;;;10.15;100.00;95841.34;4997786;28;20085;-48
2023/01/15 03:59:38;;;;;;;0.65;0.15;;;10.60;99.90;;;10.14;100.00;95842.31;4993237;28;20038;-46
2023/01/15 04:02:08;;;;;;;0.25;0.20;;;10.70;99.90;;;10.18;100.00;95859.63;4996290;28;20025;-44
2023/01/15 04:04:34;;;;;;;1.85;0.30;;;10.70;99.90;;;10.19;100.00;95842.84;4994399;28;20505;-46
2023/01/15 04:07:02;;;;;;;2.25;0.25;;;10.70;99.90;;;10.22;100.00;95858.47;4996405;28;20033;-47
2023/01/15 04:09:28;;;;;;;0.10;0.10;;;10.70;99.90;;;10.24;100.00;95842.59;4993905;28;20056;-43
2023/01/15 04:11:59;;;;;;;0.20;0.17;;;10.80;99.90;;;10.30;100.00;95826.41;4995896;28;20111;-47
2023/01/15 04:14:25;;;;;;;0.30;0.20;;;10.80;99.90;;;10.31;100.00;95820.22;4995747;28;20545;-47
2023/01/15 04:16:52;;;;;;;0.35;0.28;;;10.80;99.90;;;10.32;100.00;95833.31;4997619;28;20030;-47
2023/01/15 04:19:18;;;;;;;0.20;0.20;;;10.90;99.90;;;10.35;100.00;95837.53;4999508;28;20390;-43
2023/01/15 04:21:44;;;;;;;0.20;0.20;;;10.90;99.90;;;10.40;100.00;95824.09;4994872;28;20030;-45
2023/01/15 04:24:09;;;;;;;0.47;0.20;;;10.90;99.90;;;10.43;100.00;95819.50;4998182;28;20025;-47
2023/01/15 04:26:35;;;;;;;0.20;0.20;;;10.90;99.90;;;10.41;100.00;95812.59;5000376;28;20026;-47
2023/01/15 04:29:00;;;;;;;0.80;0.13;;;10.90;99.90;;;10.34;100.00;95798.09;4998048;28;20046;-47
2023/01/15 04:31:26;;;;;;;0.28;0.10;;;10.90;99.90;;;10.38;100.00;95821.56;4997324;28;20133;-47
2023/01/15 04:33:52;;;;;;;0.13;0.10;;;10.90;99.90;;;10.41;100.00;95807.31;4996881;28;20042;-47
2023/01/15 04:36:18;;;;;;;1.20;0.15;;;10.90;99.90;;;10.38;100.00;95804.91;4998075;28;20033;-48
2023/01/15 04:38:44;;;;;;;0.10;0.10;;;10.90;99.90;;;10.26;100.00;95785.38;4995271;28;20124;-47
2023/01/15 04:44:06;;;;;;;0.30;0.20;;;10.90;99.90;;;10.48;100.00;95796.34;4996178;28;20513;-47
2023/01/15 04:46:43;;;;;;;0.77;0.10;;;11.00;99.90;;;10.53;100.00;95805.72;4998550;28;20039;-44
2023/01/15 04:49:13;;;;;;;0.20;0.20;;;11.00;99.90;;;10.58;100.00;95801.03;4996044;28;20049;-47
2023/01/15 04:51:39;;;;;;;0.20;0.10;;;11.10;99.90;;;10.55;100.00;95815.25;4998866;28;20619;-46
2023/01/15 04:54:08;;;;;;;0.30;0.10;;;11.00;99.90;;;10.53;100.00;95819.75;4993108;28;20037;-46
2023/01/15 04:56:42;;;;;;;0.65;0.10;;;11.00;99.90;;;10.55;100.00;95814.38;4998850;28;20115;-47
2023/01/15 04:59:09;;;;;;;0.13;0.10;;;11.10;99.90;;;10.57;100.00;95816.00;4996054;28;20076;-46
2023/01/15 05:01:35;;;;;;;0.13;0.10;;;11.10;99.90;;;10.58;100.00;95801.03;4997620;28;20024;-46
2023/01/15 05:04:01;;;;;;;0.10;0.10;;;11.10;99.90;;;10.62;100.00;95813.06;4994017;28;20022;-48
2023/01/15 05:06:28;;;;;;;0.20;0.20;;;11.10;99.90;;;10.60;100.00;95807.03;4996959;28;20064;-47
2023/01/15 05:08:53;;;;;;;0.45;0.20;;;11.10;99.90;;;10.57;100.00;95809.88;4996122;28;20030;-45
2023/01/15 05:11:20;;;;;;;0.82;0.20;;;11.10;99.90;;;10.57;100.00;95808.09;4998329;28;20044;-47
2023/01/15 05:13:45;;;;;;;0.10;0.10;;;11.10;99.90;;;10.59;100.00;95819.38;4992802;28;20269;-44
2023/01/15 05:16:20;;;;;;;0.10;0.10;;;11.10;99.90;;;10.54;100.00;95832.00;4995152;28;20390;-47
2023/01/15 05:18:47;;;;;;;1.75;0.20;;;11.10;99.90;;;10.56;100.00;95847.72;4993838;28;20066;-47
2023/01/15 05:21:33;;;;;;;0.20;0.20;;;11.10;99.90;;;10.47;100.00;95881.59;4994384;28;20026;-46
2023/01/15 05:24:02;;;;;;;1.67;0.20;;;11.00;99.90;;;10.00;100.00;95871.25;4994433;28;20056;-47
2023/01/15 05:26:31;;;;;;;1.58;0.40;;;10.70;99.90;;;9.26;100.00;95868.44;4996464;28;20587;-47
2023/01/15 05:28:59;;;;;;;0.28;0.10;;;10.10;99.90;;;8.79;100.00;95882.41;4992426;28;20076;-47
2023/01/15 05:31:25;;;;;;;1.85;0.30;;;9.60;99.90;;;8.20;100.00;95903.84;4997415;28;20034;-47
2023/01/15 05:33:53;;;;;;;0.25;0.20;;;9.10;99.90;;;7.89;100.00;95893.22;4993834;28;20038;-45
2023/01/15 05:36:23;;;;;;;0.55;0.25;;;8.70;99.90;;;7.63;100.00;95913.72;4996163;28;20482;-44
2023/01/15 05:38:48;;;;;;;0.30;0.30;;;8.40;99.90;;;7.47;100.00;95907.53;4996070;28;20540;-43
2023/01/15 05:42:18;;;;;;;0.20;0.20;;;8.20;99.90;;;7.38;100.00;95903.56;4997913;28;20030;-46
2023/01/15 05:44:23;;;;;;;0.57;0.20;;;8.10;99.90;;;7.14;100.00;95910.81;4995526;28;20450;-44
2023/01/15 05:46:52;;;;;;;0.25;0.25;;;7.90;99.90;;;6.97;100.00;95909.00;4990961;28;20022;-46
2023/01/15 05:49:22;;;;;;;2.08;0.32;;;7.70;99.90;;;6.86;100.00;95904.25;4995518;28;20038;-47
2023/01/15 05:51:48;;;;;;;0.80;0.32;;;7.60;99.90;;;6.76;100.00;95902.97;4992103;28;20080;-45
2023/01/15 05:54:17;;;;;;;0.32;0.32;;;7.50;99.90;;;6.71;100.00;95904.94;4995860;28;20494;-44
2023/01/15 05:56:47;;;;;;;0.40;0.32;;;7.40;99.90;;;6.57;100.00;95910.78;4994013;28;20548;-46
2023/01/15 05:59:17;;;;;;;0.52;0.40;;;7.30;99.90;;;6.51;100.00;95922.41;4994799;28;20030;-42
2023/01/15 06:01:43;;;;;;;0.68;0.22;;;7.30;99.90;;;6.44;100.00;95921.84;4994539;28;20026;-43
2023/01/15 06:04:12;;;;;;;0.40;0.30;;;7.20;99.90;;;6.35;100.00;95918.75;4991343;28;20449;-44
2023/01/15 06:06:39;;;;;;;0.25;0.20;;;7.10;99.90;;;6.32;100.00;95901.44;4994551;28;20018;-44
2023/01/15 06:09:05;;;;;;;0.40;0.20;;;7.00;99.90;;;6.25;100.00;95932.25;4992914;28;20694;-45
2023/01/15 06:11:31;;;;;;;0.15;0.15;;;7.00;99.90;;;6.21;100.00;95920.22;4996888;28;20045;-43
2023/01/15 06:13:57;;;;;;;0.17;0.10;;;6.90;99.90;;;6.13;100.00;95918.84;4992831;28;20133;-43
2023/01/15 06:16:23;;;;;;;0.10;0.10;;;6.90;99.90;;;6.08;100.00;95921.66;4991746;28;20021;-42
2023/01/15 06:18:49;;;;;;;0.82;0.10;;;6.80;99.90;;;6.02;100.00;95922.78;4994620;28;20078;-43
2023/01/15 06:21:15;;;;;;;0.10;0.10;;;6.80;99.90;;;6.02;100.00;95935.00;4993852;28;20034;-47
2023/01/15 06:23:42;;;;;;;0.05;0.05;;;6.70;99.90;;;5.96;100.00;95932.63;4993846;28;20095;-46
2023/01/15 06:26:13;;;;;;;0.00;0.00;;;6.70;99.90;;;5.93;100.00;95929.22;4996243;28;20422;-43
2023/01/15 06:28:40;;;;;;;0.77;0.20;;;6.70;99.90;;;5.90;100.00;95936.34;4993267;28;20033;-46
2023/01/15 06:31:15;;;;;;;0.10;0.10;;;6.60;99.90;;;5.85;100.00;95943.53;4994832;28;20117;-43
2023/01/15 06:33:41;;;;;;;0.10;0.10;;;6.60;99.90;;;5.79;100.00;95942.00;4993689;28;20026;-44
2023/01/15 06:36:16;;;;;;;0.10;0.10;;;6.50;99.90;;;5.77;100.00;95949.06;4995558;28;20133;-43
2023/01/15 06:38:43;;;;;;;1.13;0.17;;;6.50;99.90;;;5.70;100.00;95971.16;4992471;28;20026;-46
2023/01/15 06:49:34;;;;;;;0.85;0.10;;;6.40;99.90;;;5.49;100.00;95988.56;4998573;28;20032;-41
2023/01/15 06:52:01;;;;;;;4.07;0.25;;;6.30;99.90;;;5.45;100.00;95993.06;4992113;28;20030;-46
2023/01/15 06:54:27;;;;;;;0.10;0.10;;;6.20;99.90;;;5.32;100.00;95997.06;4991830;28;20045;-44
2023/01/15 06:56:52;;;;;;;0.20;0.20;;;6.10;99.90;;;5.32;100.00;96013.59;4992749;28;20033;-43
2023/01/15 06:59:19;;;;;;;0.10;0.10;;;6.10;99.90;;;5.26;100.00;96006.00;4995951;28;20410;-44
2023/01/15 07:01:44;;;;;;;0.20;0.20;;;6.00;99.90;;;5.26;100.00;96006.00;4992012;28;20017;-43
2023/01/15 07:04:10;;;;;;;0.10;0.10;;;6.00;99.90;;;5.11;100.00;96019.63;4999503;28;20045;-43
2023/01/15 07:06:36;;;;;;;0.55;0.20;;;6.00;99.90;;;5.08;100.00;96032.81;4998261;28;20056;-42
2023/01/15 07:09:02;;;;;;;0.75;0.10;;;5.90;99.90;;;5.02;100.00;96038.28;5000737;28;20025;-42
2023/01/15 07:11:28;;;;;;;0.10;0.10;;;5.80;99.90;;;4.91;100.00;96059.56;4992512;28;20045;-41
2023/01/15 07:14:04;;;;;;;0.70;0.10;;;5.70;99.90;;;4.87;100.00;96068.44;4994659;28;20506;-42
2023/01/15 07:16:32;;;;;;;0.10;0.10;;;5.70;99.90;;;4.85;100.00;96068.47;4997983;28;20030;-42
2023/01/15 07:18:57;;;;;;;1.30;0.10;;;5.60;99.90;;;4.79;100.00;96084.34;4996711;28;20125;-41
2023/01/15 07:21:23;;;;;;;0.10;0.10;;;5.60;99.90;;;4.84;100.00;96076.38;4995261;28;20023;-44
2023/01/15 07:23:49;;;;;;;0.10;0.10;;;5.50;99.90;;;4.71;100.00;96084.63;4997455;28;20482;-43
2023/01/15 07:26:15;;;;;;;0.03;0.03;;;5.50;99.90;;;4.65;100.00;96087.47;5000980;28;20129;-43
2023/01/15 07:28:41;;;;;;;0.10;0.10;;;5.40;99.90;;;4.56;100.00;96086.00;4993620;28;20547;-42
2023/01/15 07:31:06;;;;;;;0.10;0.10;;;5.40;99.90;;;4.55;100.00;96093.91;5000704;28;20040;-41
2023/01/15 07:33:32;;;;;;;0.95;0.13;;;5.30;99.90;;;4.52;100.00;96104.44;4996310;28;20381;-42
2023/01/15 07:36:01;;;;;;;0.55;0.20;;;5.30;99.90;;;4.46;100.00;96105.50;4997380;28;20026;-41
2023/01/15 07:38:27;;;;;;;0.25;0.20;;;5.30;99.90;;;4.41;100.00;96102.19;4997382;28;20026;-41
2023/01/15 07:51:56;;;;;;;0.10;0.10;;;5.10;99.90;;;4.27;100.00;96115.72;4994173;28;20085;-42
2023/01/15 07:54:21;;;;;;;0.45;0.32;;;5.10;99.90;;;4.26;100.00;96134.88;4996341;28;20421;-42
2023/01/15 07:56:48;;;;;;;0.35;0.20;;;5.00;99.90;;;4.27;100.00;96139.19;4995204;28;20484;-41
2023/01/15 07:59:14;;;;;;;0.00;0.00;;;5.00;99.90;;;4.29;100.00;96139.13;4997574;28;20084;-41
2023/01/15 08:01:39;;;;;;;0.10;0.10;;;5.00;99.90;;;4.25;100.00;96151.41;4995415;28;20022;-41
2023/01/15 08:04:05;;;;;;;0.55;0.20;;;5.00;99.90;;;4.25;100.00;96164.47;4994107;28;20023;-41
2023/01/15 08:06:31;;;;;;;0.73;0.10;;;5.00;99.90;;;4.25;100.00;96163.63;4998080;28;20287;-43
2023/01/15 08:08:56;;;;;;;0.20;0.10;;;5.00;99.90;;;4.22;100.00;96169.81;4995293;28;20057;-43
2023/01/15 08:16:53;;;;;;;0.10;0.10;;;5.00;99.90;;;4.13;100.00;96159.66;4996417;28;20142;-42
2023/01/15 08:19:18;;;;;;;1.75;0.30;;;5.00;99.90;;;4.24;100.00;96191.47;4992842;28;20247;-41
2023/01/15 08:21:44;;;;;;;0.32;0.30;;;5.00;99.90;;;4.24;100.00;96195.84;4996266;28;20034;-42
2023/01/15 08:24:10;;;;;;;0.40;0.10;;;5.00;99.90;;;4.26;100.00;96191.44;4995974;28;20029;-43
2023/01/15 08:26:35;;;;;;;0.50;0.15;;;5.00;99.90;;;4.34;100.00;96187.69;4999487;28;20143;-42
2023/01/15 08:29:01;;;;;;;0.10;0.10;;;5.10;99.90;;;4.29;100.00;96176.53;4997307;28;20030;-42
2023/01/15 08:31:27;;;;;;;0.40;0.20;;;5.00;99.90;;;4.28;100.00;96184.41;4999686;28;20406;-41
2023/01/15 08:33:52;;;;;;;2.70;0.17;;;5.00;99.90;;;4.26;100.00;96200.09;4996969;28;20042;-43
2023/01/15 08:36:18;;;;;;;0.68;0.20;;;5.00;99.90;;;4.35;100.00;96202.44;4991510;28;20366;-44
2023/01/15 08:38:44;;;;;;;2.42;0.20;;;5.00;99.90;;;4.37;100.00;96192.78;4997966;28;20034;-42
2023/01/15 08:41:09;;;;;;;0.70;0.15;;;5.10;99.90;;;4.35;100.00;96202.44;4996943;28;20442;-43
2023/01/15 08:43:35;;;;;;;1.75;0.20;;;5.10;99.90;;;4.32;100.00;96212.13;4997474;28;20037;-44
2023/01/15 08:46:03;;;;;;;0.10;0.10;;;5.10;99.90;;;4.38;100.00;96212.78;5059882;22;20064;-36
2023/01/15 08:48:30;;;;;;;0.43;0.20;;;5.10;99.90;;;4.37;100.00;96220.66;5078192;28;20020;-36
2023/01/15 08:50:57;;;;;;;0.75;0.13;;;5.10;99.90;;;4.38;100.00;96241.50;5078012;28;20515;-36
2023/01/15 08:53:23;;;;;;;0.13;0.13;;;5.10;99.90;;;4.32;100.00;96244.28;5076954;28;20385;-36
2023/01/15 08:55:49;;;;;;;0.47;0.10;;;5.10;99.90;;;4.27;100.00;96246.19;5072181;28;20039;-36
2023/01/15 08:58:16;;;;;;;0.20;0.10;;;5.10;99.90;;;4.30;100.00;96255.69;5071908;28;20357;-36
2023/01/15 09:00:43;;;;;;;0.20;0.20;;;5.00;99.90;;;4.32;100.00;96270.38;5068535;28;20024;-36
2023/01/15 09:03:09;;;;;;;0.10;0.10;;;5.10;99.90;;;4.29;100.00;96274.84;5069471;28;20017;-36
2023/01/15 09:05:36;;;;;;;0.10;0.10;;;5.10;99.90;;;4.25;100.00;96274.06;5067008;28;20035;-36
2023/01/15 09:08:04;;;;;;;0.15;0.15;;;5.00;99.90;;;4.30;100.00;96282.63;5072961;28;20523;-36
2023/01/15 09:10:30;;;;;;;0.35;0.10;;;5.00;99.90;;;4.26;100.00;96278.41;5067370;28;20035;-36
2023/01/15 09:13:00;;;;;;;0.22;0.20;;;5.00;99.90;;;4.28;100.00;96278.38;5069539;28;20039;-36
2023/01/15 09:15:27;;;;;;;0.28;0.10;;;5.10;99.90;;;4.32;100.00;96279.97;5068684;28;20115;-36
2023/01/15 09:17:53;;;;;;;1.38;0.20;;;5.10;99.90;;;4.40;100.00;96278.00;5069605;28;20016;-36
2023/01/15 09:20:20;;;;;;;0.10;0.10;;;5.10;99.90;;;4.42;100.00;96285.78;5069313;28;20052;-36
2023/01/15 09:22:47;;;;;;;0.65;0.35;;;5.20;99.90;;;4.50;100.00;96294.22;5069544;28;20047;-36
2023/01/15 09:25:15;;;;;;;0.22;0.20;;;5.30;99.90;;;4.56;100.00;96297.50;5061353;28;20300;-36
2023/01/15 09:27:41;;;;;;;0.20;0.20;;;5.30;99.90;;;4.57;100.00;96309.66;5063816;28;20043;-36
2023/01/15 09:30:14;;;;;;;0.30;0.20;;;5.40;99.90;;;4.60;100.00;96329.59;5068519;28;20025;-36
2023/01/15 09:32:39;;;;;;;0.10;0.10;;;5.40;99.90;;;4.61;100.00;96341.75;5067684;28;20273;-36
2023/01/15 09:35:06;;;;;;;0.20;0.20;;;5.40;99.90;;;4.68;100.00;96342.41;5066894;28;20016;-36
2023/01/15 09:37:31;;;;;;;0.10;0.10;;;5.40;99.90;;;4.73;100.00;96350.97;5070662;28;20438;-36
2023/01/15 09:39:57;;;;;;;0.10;0.10;;;5.50;99.90;;;4.76;100.00;96351.72;5067010;28;20044;-36
2023/01/15 09:42:39;;;;;;;0.50;0.30;;;5.50;99.90;;;4.82;100.00;96337.63;5069076;28;20021;-36
2023/01/15 09:45:56;;;;;;;0.10;0.10;;;5.60;99.90;;;5.02;100.00;96337.00;5064442;28;20028;-36
2023/01/15 09:49:03;;;;;;;0.20;0.20;;;5.70;99.90;;;5.08;100.00;96344.66;5046931;28;20135;-36
2023/01/15 09:51:40;;;;;;;0.30;0.30;;;5.80;99.90;;;5.03;100.00;96351.78;5066015;28;20032;-36
2023/01/15 09:54:21;;;;;;;0.28;0.10;;;5.80;99.90;;;5.07;100.00;96357.75;5068984;28;20028;-36
2023/01/15 09:56:48;;;;;;;0.20;0.20;;;5.80;99.90;;;5.03;100.00;96366.63;5067683;28;20020;-36
2023/01/15 09:59:31;;;;;;;0.95;0.15;;;5.80;99.90;;;4.96;100.00;96366.78;5069794;28;20023;-36
2023/01/15 10:01:58;;;;;;;0.30;0.10;;;5.80;99.90;;;4.97;100.00;96378.09;5068412;28;20028;-36
2023/01/15 10:04:47;;;;;;;0.20;0.17;;;5.80;99.90;;;5.01;100.00;96389.28;5064157;28;21322;-36
2023/01/15 10:07:43;;;;;;;0.20;0.20;;;5.80;99.90;;;4.94;100.00;96381.66;5068832;28;20017;-37
2023/01/15 10:10:14;;;;;;;0.20;0.13;;;5.80;99.90;;;4.88;100.00;96391.44;5066006;28;20032;-37
2023/01/15 10:12:44;;;;;;;0.20;0.20;;;5.70;99.90;;;4.97;100.00;96380.69;5068500;28;20033;-36
2023/01/15 10:15:24;;;;;;;0.40;0.20;;;5.70;99.90;;;5.00;100.00;96383.22;5065951;28;20052;-36
2023/01/15 10:17:54;;;;;;;2.03;0.20;;;5.80;99.90;;;4.87;100.00;96377.53;5065033;28;20021;-36
2023/01/15 10:20:44;;;;;;;0.60;0.20;;;5.70;99.90;;;4.89;100.00;96395.78;5068126;28;20056;-36
2023/01/15 10:23:18;;;;;;;0.45;0.20;;;5.70;99.90;;;4.83;100.00;96393.31;5067516;28;20032;-36
2023/01/15 10:25:50;;;;;;;0.52;0.10;;;5.70;99.90;;;4.76;100.00;96397.91;5068415;28;20027;-36
2023/01/15 10:28:28;;;;;;;1.55;0.20;;;5.60;99.90;;;4.81;100.00;96410.81;5069617;28;20032;-36
2023/01/15 10:30:59;;;;;;;0.63;0.28;;;5.60;99.90;;;4.76;100.00;96417.03;5071257;28;20029;-36
2023/01/15 10:34:28;;;;;;;0.73;0.30;;;5.50;99.90;;;4.81;100.00;96416.91;5063178;28;20286;-36
2023/01/15 10:37:22;;;;;;;0.30;0.30;;;5.60;99.90;;;4.69;100.00;96415.50;5071103;28;20135;-36
2023/01/15 10:40:22;;;;;;;0.30;0.30;;;5.50;99.90;;;4.62;100.00;96419.19;5071187;28;20082;-36
2023/01/15 10:42:57;;;;;;;2.67;0.40;;;5.50;99.90;;;4.56;100.00;96424.59;5074206;28;20035;-36
2023/01/15 10:45:27;;;;;;;0.32;0.20;;;5.40;99.90;;;4.45;100.00;96419.69;5070521;28;20028;-36
2023/01/15 10:48:20;;;;;;;0.70;0.20;;;5.30;99.90;;;4.44;100.00;96430.16;5068790;28;20066;-36
2023/01/15 10:50:47;;;;;;;0.20;0.20;;;5.30;99.90;;;4.38;100.00;96426.84;5071478;28;20028;-36
2023/01/15 10:53:41;;;;;;;0.20;0.20;;;5.20;99.90;;;4.30;100.00;96438.38;5068569;28;20032;-36
2023/01/15 10:56:16;;;;;;;0.22;0.10;;;5.10;99.90;;;4.11;100.00;96458.88;5072024;28;20028;-36
2023/01/15 10:59:00;;;;;;;1.48;0.20;;;4.90;99.90;;;3.63;100.00;96460.09;5073971;28;20058;-36
2023/01/15 11:01:27;;;;;;;0.43;0.20;;;4.60;99.90;;;3.52;100.00;96456.91;5070281;28;20294;-36
2023/01/15 11:03:53;;;;;;;0.65;0.20;;;4.40;99.90;;;3.48;100.00;96424.81;5068572;28;20016;-36
2023/01/15 11:06:22;;;;;;;0.10;0.10;;;4.30;99.90;;;3.29;100.00;96460.06;5073187;28;20124;-36
2023/01/15 11:08:56;;;;;;;0.00;0.00;;;4.20;99.90;;;3.20;100.00;96451.56;5069302;28;20032;-36
2023/01/15 11:19:41;;;;;;;0.40;0.13;;;4.00;99.90;;;2.95;100.00;96469.47;5074391;28;20063;-36
2023/01/15 11:22:08;;;;;;;0.20;0.10;;;3.90;99.90;;;2.96;100.00;96466.00;5068383;28;20385;-36
2023/01/15 11:24:57;;;;;;;0.10;0.10;;;3.90;99.90;;;2.92;100.00;96479.94;5069005;28;20021;-36